createdAt,value
2022-12-31T00:00:31.859Z,99.5
2022-12-31T00:01:31.817Z,99.6
2022-12-31T00:02:31.997Z,99.2
2022-12-31T00:03:31.926Z,98.8
2022-12-31T00:04:31.818Z,99.3
2022-12-31T00:05:31.825Z,99.5
2022-12-31T00:06:31.816Z,99.5
2022-12-31T00:08:31.836Z,98.6
2022-12-31T00:09:31.817Z,98.8
2022-12-31T00:10:31.815Z,98.4
2022-12-31T00:11:31.811Z,98.5
2022-12-31T00:12:31.813Z,98.9
2022-12-31T00:13:31.832Z,99.5
2022-12-31T00:14:31.866Z,99.5
2022-12-31T00:15:31.813Z,99.2
2022-12-31T00:16:31.874Z,99.3
2022-12-31T00:17:31.816Z,98.9
2022-12-31T00:18:31.814Z,99.1
2022-12-31T00:19:31.802Z,99.1
2022-12-31T00:20:31.807Z,98.5
2022-12-31T00:21:31.818Z,98
2022-12-31T00:22:31.854Z,97.7
2022-12-31T00:23:31.812Z,97.8
2022-12-31T00:24:31.807Z,97.5
2022-12-31T00:25:31.810Z,97.2
2022-12-31T00:26:31.817Z,97
2022-12-31T00:27:31.827Z,96.7
2022-12-31T00:28:31.813Z,96.9
2022-12-31T00:29:31.820Z,96.8
2022-12-31T00:30:31.878Z,96.8
2022-12-31T00:31:31.834Z,96.4
2022-12-31T00:32:31.812Z,96.6
2022-12-31T00:33:31.832Z,97
2022-12-31T00:34:31.821Z,97.1
2022-12-31T00:35:31.806Z,96.9
2022-12-31T00:36:31.913Z,96.9
2022-12-31T00:37:31.807Z,97
2022-12-31T00:38:47.987Z,97.3
2022-12-31T00:39:31.823Z,97.3
2022-12-31T00:40:31.835Z,97.1
2022-12-31T00:41:31.832Z,96.5
2022-12-31T00:42:31.808Z,96.6
2022-12-31T00:43:31.827Z,97.3
2022-12-31T00:44:31.832Z,97.5
2022-12-31T00:45:31.849Z,97.9
2022-12-31T00:46:31.991Z,97.4
2022-12-31T00:47:31.815Z,97.1
2022-12-31T00:48:31.825Z,97.2
2022-12-31T00:49:31.821Z,97.3
2022-12-31T00:50:31.871Z,97
2022-12-31T00:51:31.822Z,97.1
2022-12-31T00:52:31.833Z,97.1
2022-12-31T00:54:31.815Z,96.4
2022-12-31T00:55:31.820Z,95.7
2022-12-31T00:56:31.818Z,95.8
2022-12-31T00:57:31.813Z,96.1
2022-12-31T00:58:31.811Z,96.4
2022-12-31T00:59:31.820Z,96.1
2022-12-31T01:00:31.824Z,96.2
2022-12-31T01:01:32.037Z,96.5
2022-12-31T01:02:32.095Z,96.3
2022-12-31T01:03:31.888Z,96.5
2022-12-31T01:04:31.818Z,96.5
2022-12-31T01:05:31.819Z,96.4
2022-12-31T01:06:31.804Z,96.4
2022-12-31T01:07:31.882Z,96.7
2022-12-31T01:08:31.815Z,96.5
2022-12-31T01:09:31.828Z,95.9
2022-12-31T01:10:31.817Z,95.5
2022-12-31T01:11:31.817Z,95.7
2022-12-31T01:12:32.011Z,96.2
2022-12-31T01:13:31.843Z,95.9
2022-12-31T01:14:31.822Z,95.9
2022-12-31T01:15:31.854Z,95.7
2022-12-31T01:16:31.841Z,95.8
2022-12-31T01:17:31.812Z,95.5
2022-12-31T01:18:31.835Z,96.1
2022-12-31T01:19:31.809Z,96.3
2022-12-31T01:20:31.866Z,96.3
2022-12-31T01:21:31.839Z,96.1
2022-12-31T01:22:31.817Z,96.1
2022-12-31T01:23:31.816Z,96.1
2022-12-31T01:24:31.848Z,95.8
2022-12-31T01:25:31.825Z,95.6
2022-12-31T01:26:31.835Z,95.7
2022-12-31T01:27:31.821Z,95.6
2022-12-31T01:28:31.822Z,95.1
2022-12-31T01:29:31.839Z,95.4
2022-12-31T01:30:31.823Z,95.3
2022-12-31T01:31:31.886Z,95.1
2022-12-31T01:32:31.828Z,95.5
2022-12-31T01:33:31.869Z,95.7
2022-12-31T01:34:31.820Z,95.4
2022-12-31T01:35:31.814Z,95.6
2022-12-31T01:36:31.837Z,95.3
2022-12-31T01:37:31.816Z,95
2022-12-31T01:38:53.997Z,94.9
2022-12-31T01:39:31.823Z,94.6
2022-12-31T01:40:31.830Z,95
2022-12-31T01:41:31.819Z,94.9
2022-12-31T01:42:31.822Z,94.5
2022-12-31T01:43:31.820Z,94.1
2022-12-31T01:44:31.908Z,93.8
2022-12-31T01:45:31.817Z,93.7
2022-12-31T01:46:31.835Z,93.8
2022-12-31T01:47:31.821Z,93.6
2022-12-31T01:48:31.832Z,93.9
2022-12-31T01:49:31.829Z,94.1
2022-12-31T01:50:31.930Z,93.9
2022-12-31T01:51:31.812Z,94.4
2022-12-31T01:52:31.816Z,94.7
2022-12-31T01:53:31.821Z,95
2022-12-31T01:54:31.826Z,94.9
2022-12-31T01:55:31.828Z,95.3
2022-12-31T01:56:31.819Z,95.2
2022-12-31T01:57:31.834Z,94.7
2022-12-31T01:58:31.832Z,94.5
2022-12-31T01:59:31.829Z,94.7
2022-12-31T02:00:31.818Z,94.8
2022-12-31T02:01:31.948Z,95.5
2022-12-31T02:02:31.957Z,96.3
2022-12-31T02:03:31.933Z,96.2
2022-12-31T02:04:31.822Z,95.9
2022-12-31T02:05:31.823Z,95.5
2022-12-31T02:06:31.871Z,95.2
2022-12-31T02:07:31.825Z,94.9
2022-12-31T02:08:35.731Z,95.3
2022-12-31T02:09:31.863Z,95.4
2022-12-31T02:10:31.829Z,95.9
2022-12-31T02:11:31.866Z,95.6
2022-12-31T02:12:31.850Z,95.3
2022-12-31T02:13:31.860Z,95.5
2022-12-31T02:14:31.827Z,95.6
2022-12-31T02:15:31.845Z,95.3
2022-12-31T02:16:31.871Z,95
2022-12-31T02:17:31.828Z,94.9
2022-12-31T02:18:31.826Z,94.8
2022-12-31T02:19:31.832Z,94.7
2022-12-31T02:20:31.840Z,94.5
2022-12-31T02:21:31.852Z,94.6
2022-12-31T02:22:31.819Z,94.8
2022-12-31T02:23:31.840Z,94.3
2022-12-31T02:24:31.829Z,94.1
2022-12-31T02:25:31.840Z,93.7
2022-12-31T02:26:31.815Z,93.4
2022-12-31T02:27:31.857Z,93.5
2022-12-31T02:28:31.821Z,93.6
2022-12-31T02:29:31.828Z,93.6
2022-12-31T02:30:31.816Z,93.3
2022-12-31T02:31:31.857Z,93.3
2022-12-31T02:32:31.839Z,92.8
2022-12-31T02:33:31.833Z,92.5
2022-12-31T02:34:31.827Z,92.4
2022-12-31T02:35:31.836Z,92.2
2022-12-31T02:36:31.859Z,92.3
2022-12-31T02:37:31.819Z,92.4
2022-12-31T02:38:24.993Z,92.2
2022-12-31T02:39:31.837Z,91.6
2022-12-31T02:40:31.850Z,91.3
2022-12-31T02:41:31.853Z,91.6
2022-12-31T02:42:31.845Z,91.4
2022-12-31T02:43:31.860Z,91.6
2022-12-31T02:44:31.839Z,91.4
2022-12-31T02:45:31.862Z,91.5
2022-12-31T02:46:31.898Z,91.1
2022-12-31T02:47:31.945Z,90.6
2022-12-31T02:48:31.830Z,90.2
2022-12-31T02:49:31.856Z,90
2022-12-31T02:50:31.820Z,89.4
2022-12-31T02:51:31.828Z,89.3
2022-12-31T02:52:31.831Z,89.2
2022-12-31T02:53:31.839Z,88.2
2022-12-31T02:54:31.830Z,87.9
2022-12-31T02:55:31.822Z,88.4
2022-12-31T02:56:31.826Z,88.4
2022-12-31T02:57:31.836Z,87.4
2022-12-31T02:59:31.850Z,87.8
2022-12-31T03:00:31.872Z,88
2022-12-31T03:01:32.080Z,87.7
2022-12-31T03:02:31.978Z,87
2022-12-31T03:03:31.850Z,87
2022-12-31T03:04:31.834Z,87.2
2022-12-31T03:05:31.832Z,87.5
2022-12-31T03:06:31.844Z,87.4
2022-12-31T03:07:31.822Z,87.4
2022-12-31T03:08:31.829Z,87.4
2022-12-31T03:09:31.849Z,87.7
2022-12-31T03:10:31.839Z,87.8
2022-12-31T03:11:31.853Z,87.3
2022-12-31T03:12:31.840Z,87
2022-12-31T03:13:31.839Z,86.9
2022-12-31T03:14:31.827Z,87.3
2022-12-31T03:15:31.882Z,87.6
2022-12-31T03:16:31.865Z,87.2
2022-12-31T03:17:31.841Z,87
2022-12-31T03:18:31.847Z,86.6
2022-12-31T03:19:31.828Z,86.5
2022-12-31T03:20:31.873Z,86.7
2022-12-31T03:21:31.859Z,86.2
2022-12-31T03:22:31.839Z,86.7
2022-12-31T03:23:31.832Z,86.4
2022-12-31T03:24:31.818Z,86.1
2022-12-31T03:25:31.821Z,85.9
2022-12-31T03:26:31.845Z,85.5
2022-12-31T03:27:31.842Z,85.1
2022-12-31T03:28:31.837Z,85.6
2022-12-31T03:29:31.828Z,85.6
2022-12-31T03:30:31.838Z,85.8
2022-12-31T03:31:31.862Z,85.7
2022-12-31T03:32:31.828Z,86.1
2022-12-31T03:33:31.829Z,85.7
2022-12-31T03:34:31.839Z,85.9
2022-12-31T03:35:31.834Z,85.3
2022-12-31T03:36:31.849Z,85.7
2022-12-31T03:37:31.845Z,85.5
2022-12-31T03:38:31.845Z,85.3
2022-12-31T03:39:31.838Z,85.6
2022-12-31T03:40:31.833Z,84.9
2022-12-31T03:41:31.882Z,85.4
2022-12-31T03:42:31.858Z,85.5
2022-12-31T03:43:31.833Z,85.4
2022-12-31T03:44:31.846Z,85.3
2022-12-31T03:45:31.911Z,85.1
2022-12-31T03:46:31.846Z,85.1
2022-12-31T03:47:31.833Z,85.3
2022-12-31T03:48:31.995Z,85.8
2022-12-31T03:49:31.864Z,85.7
2022-12-31T03:50:31.851Z,85.4
2022-12-31T03:51:31.854Z,85.4
2022-12-31T03:52:31.837Z,85.3
2022-12-31T03:53:31.828Z,85.9
2022-12-31T03:54:31.838Z,85.6
2022-12-31T03:55:31.863Z,85.5
2022-12-31T03:56:31.842Z,85.5
2022-12-31T03:57:31.850Z,84.9
2022-12-31T03:58:31.829Z,84.7
2022-12-31T03:59:31.839Z,84.8
2022-12-31T04:00:31.866Z,84.8
2022-12-31T04:01:31.907Z,84.9
2022-12-31T04:02:32.085Z,84.5
2022-12-31T04:03:31.853Z,84.8
2022-12-31T04:04:31.896Z,84.6
2022-12-31T04:05:31.831Z,84.7
2022-12-31T04:06:31.825Z,84.9
2022-12-31T04:07:31.837Z,85.1
2022-12-31T04:08:31.852Z,85
2022-12-31T04:09:31.837Z,85.4
2022-12-31T04:10:31.841Z,84.9
2022-12-31T04:11:31.845Z,84.7
2022-12-31T04:12:31.844Z,84
2022-12-31T04:13:31.867Z,84.3
2022-12-31T04:14:31.832Z,84.6
2022-12-31T04:15:31.851Z,84.9
2022-12-31T04:17:31.847Z,84.7
2022-12-31T04:18:31.877Z,84.2
2022-12-31T04:19:31.836Z,84
2022-12-31T04:20:31.853Z,84
2022-12-31T04:21:35.171Z,84.6
2022-12-31T04:22:31.844Z,84.6
2022-12-31T04:23:31.842Z,84.8
2022-12-31T04:24:31.830Z,84.9
2022-12-31T04:25:31.851Z,84.5
2022-12-31T04:26:31.848Z,84.3
2022-12-31T04:27:31.836Z,84.5
2022-12-31T04:28:31.852Z,84.3
2022-12-31T04:29:31.858Z,84
2022-12-31T04:30:31.855Z,83.6
2022-12-31T04:31:31.861Z,83.5
2022-12-31T04:32:31.849Z,83.6
2022-12-31T04:33:31.905Z,83.2
2022-12-31T04:34:31.857Z,83.1
2022-12-31T04:35:33.566Z,82.8
2022-12-31T04:37:31.837Z,83.4
2022-12-31T04:38:31.833Z,83.1
2022-12-31T04:39:31.869Z,83.1
2022-12-31T04:40:31.872Z,83.1
2022-12-31T04:41:31.857Z,82.9
2022-12-31T04:42:31.843Z,82.8
2022-12-31T04:43:31.845Z,82.6
2022-12-31T04:44:31.878Z,82.5
2022-12-31T04:45:31.911Z,82.9
2022-12-31T04:46:31.841Z,82.6
2022-12-31T04:47:31.843Z,82.9
2022-12-31T04:48:31.854Z,83.1
2022-12-31T04:49:31.856Z,82.7
2022-12-31T04:50:31.849Z,82.6
2022-12-31T04:51:31.856Z,82
2022-12-31T04:52:34.606Z,82.1
2022-12-31T04:53:31.855Z,82.1
2022-12-31T04:54:31.839Z,82.1
2022-12-31T04:55:31.867Z,81.7
2022-12-31T04:56:31.850Z,81.6
2022-12-31T04:57:31.848Z,82
2022-12-31T04:58:31.846Z,82.3
2022-12-31T04:59:41.889Z,81.6
2022-12-31T05:00:31.854Z,82.1
2022-12-31T05:01:31.916Z,81.7
2022-12-31T05:02:32.006Z,81.9
2022-12-31T05:03:31.849Z,81.7
2022-12-31T05:04:31.844Z,81.4
2022-12-31T05:05:31.852Z,81.4
2022-12-31T05:06:31.860Z,81.7
2022-12-31T05:07:31.863Z,81.2
2022-12-31T05:08:31.863Z,81.4
2022-12-31T05:09:31.863Z,81.4
2022-12-31T05:10:31.836Z,80.9
2022-12-31T05:11:31.859Z,80.9
2022-12-31T05:12:31.861Z,80.6
2022-12-31T05:13:33.637Z,80.7
2022-12-31T05:14:31.851Z,80.9
2022-12-31T05:15:31.853Z,80.7
2022-12-31T05:17:31.857Z,80.8
2022-12-31T05:18:31.865Z,80.5
2022-12-31T05:19:31.845Z,80.8
2022-12-31T05:20:31.871Z,80.7
2022-12-31T05:21:31.857Z,81
2022-12-31T05:22:31.900Z,80.4
2022-12-31T05:23:31.861Z,79.9
2022-12-31T05:24:31.844Z,79.9
2022-12-31T05:25:31.868Z,79.9
2022-12-31T05:26:31.860Z,79.9
2022-12-31T05:27:31.849Z,79.3
2022-12-31T05:28:31.856Z,79.4
2022-12-31T05:29:31.851Z,79.4
2022-12-31T05:30:31.918Z,79
2022-12-31T05:31:31.860Z,78.7
2022-12-31T05:32:31.854Z,78.5
2022-12-31T05:33:31.853Z,79.1
2022-12-31T05:34:31.853Z,78.5
2022-12-31T05:35:31.868Z,78.4
2022-12-31T05:36:31.876Z,78.3
2022-12-31T05:37:31.847Z,78.5
2022-12-31T05:38:31.856Z,77.8
2022-12-31T05:39:31.861Z,77.9
2022-12-31T05:40:31.863Z,78.2
2022-12-31T05:41:31.872Z,78.3
2022-12-31T05:42:31.866Z,78.3
2022-12-31T05:43:31.868Z,78.3
2022-12-31T05:44:31.862Z,78.7
2022-12-31T05:45:31.880Z,78.4
2022-12-31T05:46:31.870Z,78
2022-12-31T05:47:31.853Z,78.5
2022-12-31T05:48:31.917Z,77.8
2022-12-31T05:49:31.857Z,77.9
2022-12-31T05:50:31.873Z,77.4
2022-12-31T05:51:31.876Z,77.2
2022-12-31T05:52:31.857Z,77.2
2022-12-31T05:53:31.849Z,76.9
2022-12-31T05:54:31.870Z,76.8
2022-12-31T05:55:31.908Z,76.9
2022-12-31T05:56:31.899Z,76.9
2022-12-31T05:57:31.858Z,76.8
2022-12-31T05:58:31.861Z,76.4
2022-12-31T05:59:47.983Z,76.3
2022-12-31T06:00:31.885Z,76.4
2022-12-31T06:01:31.963Z,76.8
2022-12-31T06:02:31.870Z,76.5
2022-12-31T06:03:31.884Z,76.3
2022-12-31T06:04:31.865Z,75.9
2022-12-31T06:05:31.875Z,76.4
2022-12-31T06:06:31.855Z,76
2022-12-31T06:07:31.860Z,76.1
2022-12-31T06:08:31.865Z,76.1
2022-12-31T06:09:31.872Z,76.4
2022-12-31T06:10:31.855Z,76.3
2022-12-31T06:11:31.881Z,76.3
2022-12-31T06:12:31.871Z,76.2
2022-12-31T06:13:31.879Z,76.3
2022-12-31T06:14:31.858Z,76.6
2022-12-31T06:15:31.892Z,76.8
2022-12-31T06:16:31.883Z,76.4
2022-12-31T06:17:31.869Z,76.1
2022-12-31T06:18:31.871Z,76.2
2022-12-31T06:19:31.878Z,75.9
2022-12-31T06:20:31.862Z,75.9
2022-12-31T06:21:31.869Z,76.2
2022-12-31T06:22:31.872Z,76.4
2022-12-31T06:23:31.871Z,76.3
2022-12-31T06:24:31.857Z,75.9
2022-12-31T06:25:31.870Z,75.7
2022-12-31T06:26:31.877Z,76.3
2022-12-31T06:27:31.859Z,76.3
2022-12-31T06:28:31.877Z,76.2
2022-12-31T06:29:31.874Z,76
2022-12-31T06:30:31.864Z,76.2
2022-12-31T06:31:31.904Z,76.2
2022-12-31T06:32:31.902Z,76
2022-12-31T06:33:31.862Z,76.1
2022-12-31T06:34:31.864Z,76.1
2022-12-31T06:35:31.881Z,76.3
2022-12-31T06:36:31.856Z,76.1
2022-12-31T06:37:31.865Z,76.1
2022-12-31T06:38:31.853Z,75.7
2022-12-31T06:39:31.879Z,75.5
2022-12-31T06:40:31.916Z,75.8
2022-12-31T06:41:31.863Z,75.5
2022-12-31T06:42:31.859Z,75.8
2022-12-31T06:43:31.874Z,76.1
2022-12-31T06:44:31.879Z,76.1
2022-12-31T06:45:31.872Z,76.3
2022-12-31T06:46:31.954Z,76.6
2022-12-31T06:47:31.861Z,76.5
2022-12-31T06:48:31.889Z,76.3
2022-12-31T06:49:31.900Z,75.9
2022-12-31T06:50:31.864Z,76
2022-12-31T06:51:31.859Z,75.4
2022-12-31T06:52:31.877Z,75.7
2022-12-31T06:53:31.953Z,75.7
2022-12-31T06:54:31.869Z,75.7
2022-12-31T06:55:31.874Z,75.8
2022-12-31T06:56:34.759Z,75.9
2022-12-31T06:57:31.887Z,75.7
2022-12-31T06:58:31.867Z,75.7
2022-12-31T06:59:53.990Z,76.1
2022-12-31T07:00:31.874Z,76.1
2022-12-31T07:01:31.988Z,76.3
2022-12-31T07:02:32.041Z,76.2
2022-12-31T07:03:31.891Z,76
2022-12-31T07:04:31.911Z,75.6
2022-12-31T07:05:31.878Z,75.7
2022-12-31T07:06:31.874Z,75.4
2022-12-31T07:07:31.852Z,75.7
2022-12-31T07:08:31.877Z,75.9
2022-12-31T07:09:31.867Z,76
2022-12-31T07:10:31.874Z,75.9
2022-12-31T07:11:31.927Z,75.7
2022-12-31T07:12:31.880Z,75.9
2022-12-31T07:13:31.880Z,76.2
2022-12-31T07:14:31.876Z,76.1
2022-12-31T07:15:31.873Z,75.7
2022-12-31T07:16:31.986Z,75.8
2022-12-31T07:17:31.880Z,75.6
2022-12-31T07:18:31.915Z,75.6
2022-12-31T07:19:31.874Z,75.6
2022-12-31T07:20:31.932Z,75.2
2022-12-31T07:21:31.885Z,75.4
2022-12-31T07:22:31.876Z,75.2
2022-12-31T07:23:31.865Z,75.3
2022-12-31T07:24:31.874Z,75.5
2022-12-31T07:25:31.875Z,75
2022-12-31T07:26:31.879Z,75.5
2022-12-31T07:27:31.870Z,75.2
2022-12-31T07:28:31.875Z,75.3
2022-12-31T07:29:31.874Z,75.1
2022-12-31T07:30:31.880Z,75.2
2022-12-31T07:31:31.959Z,75.1
2022-12-31T07:32:31.919Z,75
2022-12-31T07:33:31.886Z,74.8
2022-12-31T07:34:31.894Z,75.2
2022-12-31T07:35:35.297Z,75.2
2022-12-31T07:36:31.878Z,75.2
2022-12-31T07:37:31.896Z,75.3
2022-12-31T07:38:31.884Z,75.1
2022-12-31T07:39:31.943Z,74.8
2022-12-31T07:40:31.884Z,75.1
2022-12-31T07:41:31.880Z,74.3
2022-12-31T07:42:31.879Z,74.7
2022-12-31T07:43:31.889Z,74.5
2022-12-31T07:44:31.878Z,74.6
2022-12-31T07:45:31.889Z,74.8
2022-12-31T07:46:32.040Z,75.1
2022-12-31T07:47:31.942Z,75.3
2022-12-31T07:48:31.900Z,75.1
2022-12-31T07:49:32.072Z,74.8
2022-12-31T07:50:31.876Z,74.4
2022-12-31T07:51:31.870Z,74.9
2022-12-31T07:52:31.932Z,74.9
2022-12-31T07:53:32.244Z,74.7
2022-12-31T07:54:31.872Z,74.6
2022-12-31T07:55:31.879Z,74.4
2022-12-31T07:56:31.891Z,74.4
2022-12-31T07:57:32.238Z,74.5
2022-12-31T07:58:31.873Z,74.4
2022-12-31T07:59:24.989Z,74.4
2022-12-31T08:00:31.955Z,74.1
2022-12-31T08:01:31.943Z,73.9
2022-12-31T08:02:31.989Z,74
2022-12-31T08:03:31.878Z,74.4
2022-12-31T08:04:31.892Z,74.3
2022-12-31T08:05:31.918Z,74.4
2022-12-31T08:06:31.887Z,74.2
2022-12-31T08:07:31.880Z,73.9
2022-12-31T08:08:31.887Z,73.5
2022-12-31T08:09:31.950Z,73.5
2022-12-31T08:10:31.883Z,73.5
2022-12-31T08:11:31.881Z,73.8
2022-12-31T08:12:31.877Z,73.9
2022-12-31T08:13:31.884Z,73.7
2022-12-31T08:14:31.903Z,74
2022-12-31T08:15:31.874Z,73.6
2022-12-31T08:16:31.942Z,73.9
2022-12-31T08:17:31.882Z,73.9
2022-12-31T08:18:31.918Z,73.5
2022-12-31T08:19:31.900Z,73.4
2022-12-31T08:20:31.879Z,73.4
2022-12-31T08:21:35.059Z,73
2022-12-31T08:22:31.895Z,73
2022-12-31T08:23:31.954Z,73.4
2022-12-31T08:24:31.890Z,73
2022-12-31T08:25:31.881Z,73.3
2022-12-31T08:26:31.896Z,73.7
2022-12-31T08:27:31.881Z,73.3
2022-12-31T08:28:31.891Z,73.1
2022-12-31T08:29:31.904Z,72.5
2022-12-31T08:30:31.885Z,72.6
2022-12-31T08:31:31.902Z,72.8
2022-12-31T08:32:31.885Z,72.7
2022-12-31T08:33:31.889Z,72.8
2022-12-31T08:34:31.920Z,72.3
2022-12-31T08:35:31.870Z,72.5
2022-12-31T08:36:31.925Z,72.7
2022-12-31T08:37:31.882Z,72.3
2022-12-31T08:38:31.907Z,73
2022-12-31T08:39:31.887Z,72.7
2022-12-31T08:40:31.891Z,72.7
2022-12-31T08:41:33.483Z,72.3
2022-12-31T08:42:31.895Z,72.2
2022-12-31T08:43:31.973Z,72.1
2022-12-31T08:44:31.908Z,72
2022-12-31T08:45:31.971Z,72
2022-12-31T08:46:31.880Z,72.1
2022-12-31T08:47:37.033Z,72.1
2022-12-31T08:48:31.894Z,71.9
2022-12-31T08:49:31.881Z,71.9
2022-12-31T08:50:31.888Z,71.6
2022-12-31T08:51:31.924Z,71.6
2022-12-31T08:52:31.889Z,71.4
2022-12-31T08:53:31.888Z,71.6
2022-12-31T08:54:31.882Z,71.3
2022-12-31T08:55:31.877Z,71.4
2022-12-31T08:56:31.894Z,71.6
2022-12-31T08:57:31.890Z,71.3
2022-12-31T08:58:31.909Z,71.3
2022-12-31T08:59:31.880Z,71.7
2022-12-31T09:00:31.887Z,70.9
2022-12-31T09:01:32.036Z,71.1
2022-12-31T09:02:31.888Z,71.2
2022-12-31T09:03:31.894Z,71.2
2022-12-31T09:04:31.941Z,71.3
2022-12-31T09:05:31.983Z,71.5
2022-12-31T09:06:31.904Z,71.4
2022-12-31T09:07:31.934Z,71.4
2022-12-31T09:08:31.892Z,71.2
2022-12-31T09:09:31.902Z,70.8
2022-12-31T09:10:31.885Z,70.7
2022-12-31T09:11:31.892Z,70.4
2022-12-31T09:12:31.962Z,70.4
2022-12-31T09:13:31.896Z,70.1
2022-12-31T09:14:31.889Z,70.3
2022-12-31T09:15:31.898Z,70.2
2022-12-31T09:16:31.915Z,70.3
2022-12-31T09:17:31.901Z,70.4
2022-12-31T09:18:33.445Z,70.8
2022-12-31T09:19:31.915Z,71
2022-12-31T09:20:42.391Z,71
2022-12-31T09:21:31.893Z,71.4
2022-12-31T09:22:31.903Z,71.4
2022-12-31T09:23:31.898Z,71.4
2022-12-31T09:24:31.912Z,71
2022-12-31T09:25:31.895Z,71.4
2022-12-31T09:27:31.899Z,71.3
2022-12-31T09:28:31.897Z,71.2
2022-12-31T09:29:31.887Z,70.8
2022-12-31T09:30:31.889Z,70.9
2022-12-31T09:31:31.948Z,71.1
2022-12-31T09:32:31.932Z,70.8
2022-12-31T09:33:31.907Z,70.9
2022-12-31T09:34:31.892Z,70.7
2022-12-31T09:35:31.882Z,70.4
2022-12-31T09:36:31.895Z,70.3
2022-12-31T09:37:31.900Z,70.4
2022-12-31T09:38:31.927Z,70.1
2022-12-31T09:39:31.883Z,70.4
2022-12-31T09:40:31.888Z,70.4
2022-12-31T09:41:32.164Z,70.6
2022-12-31T09:42:31.902Z,70.6
2022-12-31T09:43:31.917Z,69.9
2022-12-31T09:44:31.897Z,69.9
2022-12-31T09:45:31.922Z,70.1
2022-12-31T09:46:31.911Z,70.4
2022-12-31T09:47:31.899Z,70.3
2022-12-31T09:48:31.902Z,70
2022-12-31T09:49:31.934Z,70
2022-12-31T09:50:32.347Z,70
2022-12-31T09:51:31.903Z,69.9
2022-12-31T09:52:31.904Z,69.9
2022-12-31T09:53:31.897Z,70
2022-12-31T09:54:31.889Z,69.8
2022-12-31T09:55:31.906Z,70
2022-12-31T09:56:31.898Z,70.2
2022-12-31T09:57:31.889Z,70.2
2022-12-31T09:58:32.005Z,70.5
2022-12-31T09:59:31.910Z,70.1
2022-12-31T10:00:31.897Z,69.8
2022-12-31T10:01:32.029Z,69.8
2022-12-31T10:02:32.127Z,69.3
2022-12-31T10:03:31.976Z,70
2022-12-31T10:04:31.911Z,69.8
2022-12-31T10:05:31.918Z,69.8
2022-12-31T10:06:31.902Z,69.9
2022-12-31T10:07:31.901Z,69.7
2022-12-31T10:08:31.919Z,69.9
2022-12-31T10:09:31.934Z,69.4
2022-12-31T10:10:31.901Z,69
2022-12-31T10:11:31.904Z,68.9
2022-12-31T10:12:31.909Z,69.1
2022-12-31T10:13:31.911Z,69.3
2022-12-31T10:14:31.895Z,69
2022-12-31T10:15:31.912Z,69
2022-12-31T10:16:31.946Z,69
2022-12-31T10:17:31.914Z,69
2022-12-31T10:18:31.950Z,69.2
2022-12-31T10:19:31.915Z,69.3
2022-12-31T10:20:45.427Z,69.2
2022-12-31T10:21:31.910Z,69.4
2022-12-31T10:22:31.907Z,69
2022-12-31T10:23:31.909Z,69
2022-12-31T10:24:31.895Z,68.7
2022-12-31T10:25:37.765Z,68.4
2022-12-31T10:26:31.961Z,68.7
2022-12-31T10:27:31.917Z,68.6
2022-12-31T10:28:31.986Z,69
2022-12-31T10:29:31.901Z,69
2022-12-31T10:30:31.980Z,69
2022-12-31T10:31:31.933Z,69
2022-12-31T10:32:31.912Z,69.2
2022-12-31T10:33:31.901Z,68.7
2022-12-31T10:34:31.919Z,68.9
2022-12-31T10:35:31.931Z,68.4
2022-12-31T10:36:31.914Z,68.5
2022-12-31T10:37:31.910Z,68.7
2022-12-31T10:38:31.922Z,68.7
2022-12-31T10:39:31.928Z,68.9
2022-12-31T10:40:32.067Z,68.9
2022-12-31T10:41:31.904Z,69
2022-12-31T10:42:31.950Z,69
2022-12-31T10:43:31.917Z,69
2022-12-31T10:44:31.917Z,69.2
2022-12-31T10:45:31.913Z,69.2
2022-12-31T10:46:31.923Z,69.5
2022-12-31T10:47:31.902Z,69.3
2022-12-31T10:48:31.918Z,69.2
2022-12-31T10:49:31.938Z,69.1
2022-12-31T10:50:31.915Z,68.6
2022-12-31T10:51:31.909Z,68.7
2022-12-31T10:52:34.531Z,68.8
2022-12-31T10:53:31.923Z,68.8
2022-12-31T10:54:31.917Z,68.9
2022-12-31T10:55:31.921Z,69.1
2022-12-31T10:56:31.909Z,69.2
2022-12-31T10:57:31.905Z,68.7
2022-12-31T10:58:31.933Z,68.7
2022-12-31T10:59:31.924Z,68.8
2022-12-31T11:00:31.934Z,69.2
2022-12-31T11:01:32.005Z,68.8
2022-12-31T11:02:32.125Z,68.7
2022-12-31T11:03:31.995Z,68.9
2022-12-31T11:04:31.935Z,69.2
2022-12-31T11:05:31.898Z,69.2
2022-12-31T11:06:31.916Z,69
2022-12-31T11:07:31.924Z,68.5
2022-12-31T11:08:31.933Z,68.3
2022-12-31T11:09:34.734Z,68.5
2022-12-31T11:10:31.939Z,68.7
2022-12-31T11:11:31.946Z,68.8
2022-12-31T11:12:31.937Z,68.4
2022-12-31T11:13:31.912Z,67.8
2022-12-31T11:14:31.924Z,68.1
2022-12-31T11:15:31.965Z,68.3
2022-12-31T11:16:32.063Z,68.3
2022-12-31T11:17:31.926Z,67.9
2022-12-31T11:18:31.910Z,68
2022-12-31T11:19:31.931Z,67.8
2022-12-31T11:20:48.018Z,67.9
2022-12-31T11:21:34.288Z,68.2
2022-12-31T11:22:31.925Z,68
2022-12-31T11:23:31.913Z,67.2
2022-12-31T11:24:31.923Z,67.1
2022-12-31T11:25:31.944Z,67.1
2022-12-31T11:26:32.043Z,67.8
2022-12-31T11:27:31.924Z,67.3
2022-12-31T11:28:31.929Z,67.8
2022-12-31T11:29:31.921Z,67.9
2022-12-31T11:30:31.955Z,67.8
2022-12-31T11:31:32.043Z,67.9
2022-12-31T11:32:31.925Z,67.5
2022-12-31T11:33:31.937Z,67.6
2022-12-31T11:34:31.910Z,67.9
2022-12-31T11:35:31.950Z,67.7
2022-12-31T11:36:31.931Z,67.5
2022-12-31T11:37:31.925Z,67.4
2022-12-31T11:38:31.945Z,67.4
2022-12-31T11:39:31.915Z,67.2
2022-12-31T11:40:31.929Z,67.2
2022-12-31T11:41:31.917Z,67.2
2022-12-31T11:42:31.949Z,67
2022-12-31T11:43:31.908Z,67.1
2022-12-31T11:44:31.917Z,66.8
2022-12-31T11:45:31.935Z,67
2022-12-31T11:46:31.996Z,67.1
2022-12-31T11:47:31.919Z,66.5
2022-12-31T11:48:32.683Z,66.9
2022-12-31T11:49:31.956Z,66.5
2022-12-31T11:50:31.926Z,66.2
2022-12-31T11:51:31.928Z,66.7
2022-12-31T11:52:31.936Z,66.3
2022-12-31T11:53:31.937Z,66.6
2022-12-31T11:54:31.950Z,66.6
2022-12-31T11:55:31.923Z,66.8
2022-12-31T11:56:31.921Z,67
2022-12-31T11:57:31.968Z,67.2
2022-12-31T11:58:31.931Z,67.1
2022-12-31T11:59:31.915Z,66.7
2022-12-31T12:00:31.932Z,66.6
2022-12-31T12:01:32.024Z,66.6
2022-12-31T12:02:32.200Z,66.7
2022-12-31T12:03:32.084Z,66.7
2022-12-31T12:04:31.932Z,66.3
2022-12-31T12:05:31.953Z,66.3
2022-12-31T12:06:31.940Z,65.9
2022-12-31T12:07:31.939Z,66.2
2022-12-31T12:08:31.989Z,65.7
2022-12-31T12:09:31.929Z,65.8
2022-12-31T12:10:36.454Z,66.1
2022-12-31T12:11:31.929Z,66.4
2022-12-31T12:12:31.954Z,66.5
2022-12-31T12:13:31.956Z,66.4
2022-12-31T12:14:31.928Z,66
2022-12-31T12:15:31.939Z,66
2022-12-31T12:16:32.005Z,66.5
2022-12-31T12:17:32.235Z,66.6
2022-12-31T12:18:31.936Z,66.5
2022-12-31T12:19:31.959Z,66.5
2022-12-31T12:20:54.042Z,66.2
2022-12-31T12:21:31.963Z,66.2
2022-12-31T12:22:31.930Z,65.8
2022-12-31T12:23:31.946Z,65.9
2022-12-31T12:24:31.937Z,65.7
2022-12-31T12:25:31.940Z,65.9
2022-12-31T12:26:31.935Z,65.6
2022-12-31T12:27:31.921Z,65.9
2022-12-31T12:28:31.958Z,65.8
2022-12-31T12:29:31.933Z,65.6
2022-12-31T12:30:31.926Z,65.5
2022-12-31T12:31:31.970Z,65.5
2022-12-31T12:32:31.939Z,65.6
2022-12-31T12:33:31.925Z,65.6
2022-12-31T12:34:31.934Z,65.2
2022-12-31T12:35:31.966Z,65.3
2022-12-31T12:36:31.935Z,65.2
2022-12-31T12:37:31.948Z,65.3
2022-12-31T12:38:31.926Z,65.3
2022-12-31T12:39:31.974Z,65.3
2022-12-31T12:40:34.295Z,65.3
2022-12-31T12:41:31.924Z,64.6
2022-12-31T12:42:31.941Z,64.7
2022-12-31T12:43:31.971Z,64.9
2022-12-31T12:44:32.138Z,65.1
2022-12-31T12:45:31.929Z,65.1
2022-12-31T12:46:32.153Z,64.8
2022-12-31T12:47:31.947Z,64.7
2022-12-31T12:48:31.935Z,64.9
2022-12-31T12:49:31.948Z,65
2022-12-31T12:50:31.925Z,65.1
2022-12-31T12:51:31.981Z,65.1
2022-12-31T12:52:31.936Z,64.7
2022-12-31T12:53:31.930Z,65.1
2022-12-31T12:54:31.947Z,65
2022-12-31T12:55:31.926Z,64.8
2022-12-31T12:56:31.920Z,64.8
2022-12-31T12:57:32.123Z,64.6
2022-12-31T12:58:31.955Z,64.4
2022-12-31T12:59:31.949Z,64.3
2022-12-31T13:00:32.020Z,64.4
2022-12-31T13:01:32.118Z,64.7
2022-12-31T13:02:32.081Z,64.4
2022-12-31T13:03:31.950Z,64.4
2022-12-31T13:04:34.619Z,64
2022-12-31T13:05:31.997Z,64.4
2022-12-31T13:06:31.934Z,64.5
2022-12-31T13:07:31.941Z,64.5
2022-12-31T13:08:31.945Z,64.2
2022-12-31T13:09:31.919Z,63.9
2022-12-31T13:10:31.933Z,64
2022-12-31T13:11:31.947Z,64.3
2022-12-31T13:13:04.851Z,64.4
2022-12-31T13:13:31.962Z,64.5
2022-12-31T13:14:31.939Z,64.9
2022-12-31T13:15:32.003Z,64.9
2022-12-31T13:16:31.979Z,64.9
2022-12-31T13:17:31.941Z,64.8
2022-12-31T13:18:31.960Z,64.6
2022-12-31T13:19:31.959Z,64.6
2022-12-31T13:20:24.978Z,64.5
2022-12-31T13:21:31.951Z,64.8
2022-12-31T13:22:31.941Z,65
2022-12-31T13:23:37.789Z,65.6
2022-12-31T13:24:31.948Z,66.8
2022-12-31T13:25:31.934Z,68.2
2022-12-31T13:26:31.949Z,69.2
2022-12-31T13:27:31.933Z,70.1
2022-12-31T13:28:31.992Z,70.5
2022-12-31T13:29:31.971Z,70.8
2022-12-31T13:30:31.925Z,70.6